createdAt,value
2017-05-14T00:00:24.334Z,0
2017-05-14T00:01:39.655Z,0
2017-05-14T00:02:54.733Z,0
2017-05-14T00:04:10.264Z,0
2017-05-14T00:05:25.641Z,0
2017-05-14T00:06:40.999Z,0
2017-05-14T00:07:55.052Z,0
2017-05-14T00:09:10.633Z,0
2017-05-14T00:10:24.550Z,0
2017-05-14T00:11:38.702Z,0
2017-05-14T00:12:51.324Z,0
2017-05-14T00:14:06.965Z,0
2017-05-14T00:15:22.300Z,0
2017-05-14T00:16:36.382Z,0
2017-05-14T00:17:51.757Z,0
2017-05-14T00:19:07.340Z,0
2017-05-14T00:20:21.545Z,0
2017-05-14T00:21:36.869Z,0
2017-05-14T00:22:50.932Z,0
2017-05-14T00:24:05.220Z,0
2017-05-14T00:25:20.621Z,0
2017-05-14T00:26:36.086Z,0
2017-05-14T00:27:51.488Z,0
2017-05-14T00:29:05.833Z,0
2017-05-14T00:30:21.254Z,0
2017-05-14T00:31:36.577Z,0
2017-05-14T00:32:51.570Z,0
2017-05-14T00:34:07.157Z,0
2017-05-14T00:35:22.505Z,0
2017-05-14T00:36:36.438Z,0
2017-05-14T00:37:51.804Z,0
2017-05-14T00:39:07.367Z,0
2017-05-14T00:40:21.672Z,0
2017-05-14T00:41:34.295Z,0
2017-05-14T00:42:49.704Z,0
2017-05-14T00:44:05.386Z,0
2017-05-14T00:45:20.714Z,0
2017-05-14T00:46:34.802Z,0
2017-05-14T00:47:48.990Z,0
2017-05-14T00:49:03.355Z,0
2017-05-14T00:50:18.873Z,0
2017-05-14T00:51:32.794Z,0
2017-05-14T00:52:48.201Z,0
2017-05-14T00:54:03.800Z,0
2017-05-14T00:55:17.729Z,0
2017-05-14T00:56:33.103Z,0
2017-05-14T00:57:47.193Z,0
2017-05-14T00:59:02.561Z,0
2017-05-14T01:00:16.800Z,0
2017-05-14T01:01:30.915Z,0
2017-05-14T01:02:46.262Z,0
2017-05-14T01:04:00.336Z,0
2017-05-14T01:05:15.863Z,0
2017-05-14T01:06:30.066Z,0
2017-05-14T01:07:43.739Z,0
2017-05-14T01:08:57.847Z,0
2017-05-14T01:10:13.408Z,0
2017-05-14T01:11:28.749Z,0
2017-05-14T01:12:44.127Z,0
2017-05-14T01:13:56.943Z,0
2017-05-14T01:15:12.539Z,0
2017-05-14T01:16:25.274Z,0
2017-05-14T01:17:40.639Z,0
2017-05-14T01:18:55.988Z,0
2017-05-14T01:20:10.315Z,0
2017-05-14T01:21:25.663Z,0
2017-05-14T01:22:39.729Z,0
2017-05-14T01:23:55.094Z,0
2017-05-14T01:25:10.820Z,0
2017-05-14T01:26:26.614Z,0
2017-05-14T01:27:41.941Z,0
2017-05-14T01:28:54.725Z,0
2017-05-14T01:30:08.660Z,0
2017-05-14T01:31:24.240Z,0
2017-05-14T01:32:39.580Z,0
2017-05-14T01:33:54.960Z,0
2017-05-14T01:35:09.034Z,0
2017-05-14T01:36:23.278Z,0
2017-05-14T01:37:38.665Z,0
2017-05-14T01:38:54.221Z,0
2017-05-14T01:40:09.578Z,0
2017-05-14T01:41:23.870Z,0
2017-05-14T01:42:39.203Z,0
2017-05-14T01:43:52.998Z,0
2017-05-14T01:45:08.350Z,0
2017-05-14T01:46:23.900Z,0
2017-05-14T01:47:39.257Z,0
2017-05-14T01:48:53.348Z,0
2017-05-14T01:50:08.471Z,0
2017-05-14T01:51:22.667Z,0
2017-05-14T01:52:35.362Z,0
2017-05-14T01:53:50.690Z,0
2017-05-14T01:55:04.737Z,0
2017-05-14T01:56:19.026Z,0
2017-05-14T01:57:34.486Z,0
2017-05-14T01:58:49.903Z,0
2017-05-14T02:00:05.262Z,0
2017-05-14T02:01:20.800Z,0
2017-05-14T02:02:36.133Z,0
2017-05-14T02:03:50.177Z,0
2017-05-14T02:05:05.506Z,0
2017-05-14T02:06:19.764Z,0
2017-05-14T02:07:35.123Z,0
2017-05-14T02:08:49.063Z,0
2017-05-14T02:10:03.213Z,0
2017-05-14T02:11:18.574Z,0
2017-05-14T02:12:34.164Z,0
2017-05-14T02:13:49.492Z,0
2017-05-14T02:15:05.181Z,0
2017-05-14T02:16:20.511Z,0
2017-05-14T02:17:36.055Z,0
2017-05-14T02:18:51.014Z,0
2017-05-14T02:20:06.343Z,0
2017-05-14T02:21:21.731Z,0
2017-05-14T02:22:37.401Z,0
2017-05-14T02:23:52.765Z,0
2017-05-14T02:25:06.919Z,0
2017-05-14T02:26:20.871Z,0
2017-05-14T02:27:36.406Z,0
2017-05-14T02:28:50.467Z,0
2017-05-14T02:30:03.087Z,0
2017-05-14T02:31:17.137Z,0
2017-05-14T02:32:30.241Z,0
2017-05-14T02:33:44.395Z,0
2017-05-14T02:34:59.735Z,0
2017-05-14T02:36:15.073Z,0
2017-05-14T02:37:30.692Z,0
2017-05-14T02:38:46.258Z,0
2017-05-14T02:40:00.341Z,0
2017-05-14T02:41:14.373Z,0
2017-05-14T02:42:28.625Z,0
2017-05-14T02:43:43.955Z,4
2017-05-14T02:44:58.012Z,4
2017-05-14T02:46:13.578Z,0
2017-05-14T02:47:29.118Z,4
2017-05-14T02:48:43.282Z,4
2017-05-14T02:49:58.691Z,4
2017-05-14T02:51:12.776Z,8
2017-05-14T02:52:26.837Z,8
2017-05-14T02:53:41.341Z,8
2017-05-14T02:54:56.720Z,12
2017-05-14T02:56:10.763Z,12
2017-05-14T02:57:24.454Z,12
2017-05-14T02:58:39.988Z,16
2017-05-14T02:59:54.089Z,20
2017-05-14T03:01:09.467Z,24
2017-05-14T03:02:24.828Z,28
2017-05-14T03:03:40.404Z,32
2017-05-14T03:04:54.444Z,36
2017-05-14T03:06:09.793Z,40
2017-05-14T03:07:25.119Z,48
2017-05-14T03:08:40.686Z,56
2017-05-14T03:09:56.076Z,64
2017-05-14T03:11:11.399Z,76
2017-05-14T03:12:26.732Z,88
2017-05-14T03:13:42.257Z,96
2017-05-14T03:14:56.294Z,112
2017-05-14T03:16:07.759Z,124
2017-05-14T03:17:23.584Z,144
2017-05-14T03:18:39.179Z,164
2017-05-14T03:19:54.521Z,180
2017-05-14T03:21:09.878Z,200
2017-05-14T03:22:25.223Z,216
2017-05-14T03:23:39.498Z,236
2017-05-14T03:24:54.831Z,252
2017-05-14T03:26:10.182Z,280
2017-05-14T03:27:25.526Z,300
2017-05-14T03:28:39.805Z,328
2017-05-14T03:29:55.544Z,356
2017-05-14T03:31:10.900Z,384
2017-05-14T03:32:24.925Z,416
2017-05-14T03:33:37.801Z,444
2017-05-14T03:34:53.135Z,476
2017-05-14T03:36:08.572Z,508
2017-05-14T03:37:24.086Z,536
2017-05-14T03:38:39.611Z,564
2017-05-14T03:39:54.958Z,592
2017-05-14T03:41:09.003Z,624
2017-05-14T03:42:23.272Z,664
2017-05-14T03:43:38.874Z,708
2017-05-14T03:44:54.258Z,752
2017-05-14T03:46:09.597Z,792
2017-05-14T03:47:24.928Z,840
2017-05-14T03:48:37.546Z,888
2017-05-14T03:49:50.546Z,948
2017-05-14T03:51:05.888Z,1020
2017-05-14T03:52:17.397Z,1100
2017-05-14T03:53:32.768Z,1160
2017-05-14T03:54:48.391Z,1204
2017-05-14T03:56:02.476Z,1244
2017-05-14T03:57:16.483Z,1264
2017-05-14T03:58:31.828Z,1260
2017-05-14T03:59:47.358Z,1248
2017-05-14T04:01:02.721Z,1236
2017-05-14T04:02:18.046Z,1248
2017-05-14T04:03:33.396Z,1292
2017-05-14T04:04:48.927Z,1340
2017-05-14T04:06:04.287Z,1388
2017-05-14T04:07:19.664Z,1448
2017-05-14T04:08:32.301Z,1512
2017-05-14T04:09:47.874Z,1636
2017-05-14T04:11:03.272Z,1704
2017-05-14T04:12:15.897Z,1740
2017-05-14T04:13:29.825Z,1772
2017-05-14T04:14:45.370Z,1776
2017-05-14T04:16:00.693Z,1764
2017-05-14T04:17:16.046Z,1744
2017-05-14T04:18:28.801Z,1656
2017-05-14T04:19:44.143Z,1580
2017-05-14T04:20:59.682Z,1540
2017-05-14T04:22:13.754Z,1552
2017-05-14T04:23:29.142Z,1560
2017-05-14T04:24:44.476Z,1540
2017-05-14T04:25:58.591Z,1524
2017-05-14T04:27:13.957Z,1492
2017-05-14T04:28:27.876Z,1452
2017-05-14T04:29:41.939Z,1404
2017-05-14T04:30:57.471Z,1356
2017-05-14T04:32:12.838Z,1312
2017-05-14T04:33:28.241Z,1272
2017-05-14T04:34:42.434Z,1236
2017-05-14T04:35:56.774Z,1204
2017-05-14T04:37:12.101Z,1176
2017-05-14T04:38:27.435Z,1156
2017-05-14T04:39:42.795Z,1144
2017-05-14T04:40:58.320Z,1156
2017-05-14T04:42:13.756Z,1192
2017-05-14T04:43:27.830Z,1244
2017-05-14T04:44:41.813Z,1324
2017-05-14T04:45:54.799Z,1428
2017-05-14T04:47:10.135Z,1564
2017-05-14T04:48:25.463Z,1724
2017-05-14T04:49:40.903Z,1908
2017-05-14T04:50:56.471Z,2128
2017-05-14T04:52:10.512Z,2360
2017-05-14T04:53:25.720Z,2596
2017-05-14T04:54:41.050Z,2796
2017-05-14T04:55:56.820Z,3000
2017-05-14T04:57:12.173Z,3188
2017-05-14T04:58:26.235Z,3232
2017-05-14T04:59:41.561Z,3220
2017-05-14T05:00:57.141Z,3216
2017-05-14T05:02:12.514Z,3184
2017-05-14T05:03:27.852Z,3220
2017-05-14T05:04:43.362Z,3332
2017-05-14T05:05:59.135Z,3492
2017-05-14T05:07:13.042Z,3628
2017-05-14T05:08:27.115Z,3720
2017-05-14T05:09:42.464Z,3828
2017-05-14T05:10:58.056Z,3972
2017-05-14T05:12:13.397Z,4108
2017-05-14T05:13:28.837Z,4264
2017-05-14T05:14:42.876Z,4484
2017-05-14T05:15:56.968Z,4736
2017-05-14T05:17:09.988Z,4944
2017-05-14T05:18:25.395Z,5124
2017-05-14T05:19:39.446Z,5256
2017-05-14T05:20:53.487Z,5416
2017-05-14T05:22:09.034Z,5612
2017-05-14T05:23:24.416Z,5832
2017-05-14T05:24:38.479Z,6064
2017-05-14T05:25:52.537Z,6232
2017-05-14T05:27:06.418Z,6388
2017-05-14T05:28:21.747Z,6460
2017-05-14T05:29:37.084Z,6516
2017-05-14T05:30:51.126Z,6628
2017-05-14T05:32:05.240Z,6696
2017-05-14T05:33:19.333Z,6556
2017-05-14T05:34:33.623Z,6136
2017-05-14T05:35:47.718Z,5496
2017-05-14T05:37:02.012Z,5112
2017-05-14T05:38:17.382Z,4928
2017-05-14T05:39:31.667Z,4884
2017-05-14T05:40:45.632Z,4932
2017-05-14T05:42:01.016Z,4876
2017-05-14T05:43:16.630Z,4796
2017-05-14T05:44:32.021Z,4864
2017-05-14T05:45:47.387Z,5012
2017-05-14T05:47:02.727Z,5104
2017-05-14T05:48:16.643Z,5104
2017-05-14T05:49:32.031Z,5060
2017-05-14T05:50:46.113Z,4972
2017-05-14T05:52:00.163Z,4968
2017-05-14T05:53:13.177Z,5188
2017-05-14T05:54:27.225Z,5560
2017-05-14T05:55:42.269Z,5944
2017-05-14T05:56:57.750Z,6428
2017-05-14T05:58:12.067Z,7080
2017-05-14T05:59:27.397Z,7556
2017-05-14T06:00:41.457Z,7632
2017-05-14T06:01:55.584Z,7556
2017-05-14T06:03:11.106Z,7484
2017-05-14T06:04:25.156Z,7572
2017-05-14T06:05:39.200Z,7544
2017-05-14T06:06:54.646Z,7292
2017-05-14T06:08:10.013Z,7028
2017-05-14T06:09:25.615Z,6632
2017-05-14T06:10:40.975Z,6348
2017-05-14T06:11:55.045Z,6340
2017-05-14T06:13:09.094Z,6416
2017-05-14T06:14:24.623Z,6380
2017-05-14T06:15:38.676Z,6276
2017-05-14T06:16:54.062Z,6136
2017-05-14T06:18:08.133Z,6204
2017-05-14T06:19:22.261Z,6460
2017-05-14T06:20:37.274Z,6840
2017-05-14T06:21:51.329Z,7140
2017-05-14T06:23:04.116Z,7224
2017-05-14T06:24:19.641Z,7268
2017-05-14T06:25:34.967Z,7468
2017-05-14T06:26:50.303Z,7684
2017-05-14T06:28:03.130Z,7828
2017-05-14T06:29:18.713Z,7948
2017-05-14T06:30:32.403Z,8216
2017-05-14T06:31:45.171Z,8596
2017-05-14T06:33:00.501Z,8908
2017-05-14T06:34:14.596Z,9080
2017-05-14T06:35:30.192Z,9196
2017-05-14T06:36:45.650Z,9260
2017-05-14T06:38:00.989Z,9492
2017-05-14T06:39:16.355Z,9912
2017-05-14T06:40:31.967Z,10320
2017-05-14T06:41:47.310Z,10720
2017-05-14T06:43:02.928Z,11236
2017-05-14T06:44:18.276Z,11708
2017-05-14T06:45:32.638Z,11948
2017-05-14T06:46:46.716Z,12268
2017-05-14T06:48:02.087Z,12660
2017-05-14T06:49:17.433Z,12820
2017-05-14T06:50:31.938Z,12740
2017-05-14T06:51:47.295Z,12772
2017-05-14T06:53:02.638Z,12592
2017-05-14T06:54:16.636Z,12120
2017-05-14T06:55:30.933Z,11296
2017-05-14T06:56:46.326Z,10468
2017-05-14T06:58:01.720Z,10176
2017-05-14T06:59:14.564Z,10264
2017-05-14T07:00:27.401Z,10472
2017-05-14T07:01:42.764Z,10632
2017-05-14T07:02:58.124Z,10672
2017-05-14T07:04:13.595Z,10856
2017-05-14T07:05:28.995Z,10984
2017-05-14T07:06:43.085Z,11056
2017-05-14T07:07:58.433Z,11176
2017-05-14T07:09:12.499Z,11252
2017-05-14T07:10:27.831Z,11012
2017-05-14T07:11:40.800Z,10708
2017-05-14T07:12:56.181Z,10348
2017-05-14T07:14:10.312Z,9808
2017-05-14T07:15:25.656Z,9540
2017-05-14T07:16:41.208Z,9812
2017-05-14T07:17:56.608Z,10124
2017-05-14T07:19:10.711Z,10656
2017-05-14T07:20:24.831Z,11704
2017-05-14T07:21:40.428Z,13168
2017-05-14T07:22:55.805Z,14668
2017-05-14T07:24:08.569Z,15516
2017-05-14T07:25:23.911Z,16064
2017-05-14T07:26:39.459Z,16160
2017-05-14T07:27:54.815Z,15872
2017-05-14T07:29:10.153Z,15172
2017-05-14T07:30:25.587Z,14832
2017-05-14T07:31:39.985Z,14512
2017-05-14T07:32:55.537Z,14080
2017-05-14T07:34:09.597Z,13840
2017-05-14T07:35:25.076Z,14248
2017-05-14T07:36:40.683Z,14300
2017-05-14T07:37:56.012Z,14352
2017-05-14T07:39:11.521Z,13788
2017-05-14T07:40:25.452Z,13564
2017-05-14T07:41:38.379Z,13664
2017-05-14T07:42:53.776Z,14260
2017-05-14T07:44:09.174Z,15020
2017-05-14T07:45:24.520Z,16128
2017-05-14T07:46:40.075Z,16768
2017-05-14T07:47:55.501Z,16928
2017-05-14T07:49:09.657Z,16736
2017-05-14T07:50:25.040Z,16640
2017-05-14T07:51:40.566Z,16608
2017-05-14T07:52:54.525Z,16608
2017-05-14T07:54:08.581Z,16192
2017-05-14T07:55:22.641Z,15872
2017-05-14T07:56:38.053Z,15460
2017-05-14T07:57:53.606Z,16352
2017-05-14T07:59:07.679Z,16800
2017-05-14T08:00:23.070Z,17216
2017-05-14T08:01:38.451Z,17664
2017-05-14T08:02:51.438Z,17824
2017-05-14T08:04:06.782Z,18400
2017-05-14T08:05:22.147Z,18208
2017-05-14T08:06:36.215Z,19040
2017-05-14T08:07:49.282Z,19840
2017-05-14T08:09:04.625Z,20864
2017-05-14T08:10:19.974Z,21792
2017-05-14T08:11:35.312Z,21664
2017-05-14T08:12:50.912Z,18944
2017-05-14T08:14:04.985Z,15936
2017-05-14T08:15:18.797Z,15016
2017-05-14T08:16:32.865Z,14596
2017-05-14T08:17:48.686Z,14632
2017-05-14T08:19:04.023Z,14416
2017-05-14T08:20:19.377Z,15776
2017-05-14T08:21:33.541Z,15712
2017-05-14T08:22:47.806Z,16544
2017-05-14T08:24:01.890Z,18080
2017-05-14T08:25:17.333Z,21696
2017-05-14T08:26:31.402Z,24128
2017-05-14T08:27:46.966Z,26720
2017-05-14T08:29:02.360Z,30144
2017-05-14T08:30:17.353Z,28256
2017-05-14T08:31:33.002Z,22272
2017-05-14T08:32:48.592Z,22624
2017-05-14T08:34:04.063Z,23872
2017-05-14T08:35:19.449Z,30240
2017-05-14T08:36:33.433Z,56512
2017-05-14T08:37:49.041Z,48128
2017-05-14T08:39:03.126Z,34176
2017-05-14T08:40:18.556Z,40640
2017-05-14T08:41:34.046Z,68320
2017-05-14T08:42:49.641Z,49216
2017-05-14T08:44:05.004Z,45664
2017-05-14T08:45:20.365Z,36416
2017-05-14T08:46:35.616Z,39392
2017-05-14T08:47:51.302Z,40320
2017-05-14T08:49:07.156Z,36480
2017-05-14T08:50:21.245Z,38368
2017-05-14T08:51:36.605Z,29184
2017-05-14T08:52:52.207Z,26848
2017-05-14T08:54:06.343Z,26368
2017-05-14T08:55:22.184Z,27264
2017-05-14T08:56:37.560Z,30016
2017-05-14T08:57:53.374Z,34720
2017-05-14T08:59:08.772Z,32064
2017-05-14T09:00:23.093Z,28160
2017-05-14T09:01:37.051Z,28672
2017-05-14T09:02:52.401Z,31744
2017-05-14T09:04:08.182Z,34112
2017-05-14T09:05:20.923Z,40192
2017-05-14T09:06:34.996Z,48480
2017-05-14T09:07:50.400Z,48608
2017-05-14T09:09:04.743Z,29184
2017-05-14T09:10:20.130Z,18240
2017-05-14T09:11:35.523Z,11916
2017-05-14T09:12:51.112Z,9152
2017-05-14T09:14:06.679Z,8060
2017-05-14T09:15:22.040Z,7644
2017-05-14T09:16:37.504Z,7348
2017-05-14T09:17:52.884Z,6852
2017-05-14T09:19:07.428Z,6180
2017-05-14T09:20:22.807Z,5364
2017-05-14T09:21:38.264Z,4560
2017-05-14T09:22:52.462Z,3996
2017-05-14T09:24:07.784Z,3644
2017-05-14T09:25:23.194Z,3408
2017-05-14T09:26:38.688Z,3284
2017-05-14T09:27:54.097Z,3148
2017-05-14T09:29:09.720Z,2960
2017-05-14T09:30:25.129Z,2796
2017-05-14T09:31:39.069Z,2732
2017-05-14T09:32:54.446Z,2792
2017-05-14T09:34:07.422Z,2884
2017-05-14T09:35:22.832Z,2964
2017-05-14T09:36:35.513Z,3068
2017-05-14T09:37:50.973Z,3072
2017-05-14T09:39:06.548Z,2876
2017-05-14T09:40:20.674Z,2408
2017-05-14T09:41:36.047Z,2260
2017-05-14T09:42:51.410Z,2728
2017-05-14T09:44:07.018Z,3424
2017-05-14T09:45:22.359Z,3700
2017-05-14T09:46:36.419Z,3676
2017-05-14T09:47:51.774Z,3572
2017-05-14T09:49:07.444Z,3392
2017-05-14T09:50:21.386Z,3240
2017-05-14T09:51:36.622Z,3056
2017-05-14T09:52:51.681Z,2880
2017-05-14T09:54:07.604Z,2644
2017-05-14T09:55:21.657Z,2572
2017-05-14T09:56:35.765Z,2644
2017-05-14T09:57:51.130Z,2768
2017-05-14T09:59:05.382Z,2864
2017-05-14T10:00:20.771Z,2968
2017-05-14T10:01:35.845Z,3092
2017-05-14T10:02:49.538Z,3236
2017-05-14T10:04:04.931Z,3420
2017-05-14T10:05:19.300Z,3648
2017-05-14T10:06:34.645Z,3920
2017-05-14T10:07:48.560Z,4204
2017-05-14T10:09:03.921Z,4524
2017-05-14T10:10:19.519Z,4880
2017-05-14T10:11:34.889Z,5212
2017-05-14T10:12:49.186Z,5552
2017-05-14T10:14:03.135Z,5824
2017-05-14T10:15:18.687Z,5896
2017-05-14T10:16:34.063Z,5772
2017-05-14T10:17:49.499Z,5656
2017-05-14T10:19:03.563Z,5676
2017-05-14T10:20:19.151Z,5860
2017-05-14T10:21:34.546Z,6172
2017-05-14T10:22:48.632Z,6480
2017-05-14T10:24:02.699Z,6748
2017-05-14T10:25:17.215Z,7048
2017-05-14T10:26:32.591Z,7264
2017-05-14T10:27:43.943Z,7428
2017-05-14T10:28:58.012Z,7292
2017-05-14T10:30:13.423Z,7128
2017-05-14T10:31:29.000Z,7148
2017-05-14T10:32:44.353Z,7504
2017-05-14T10:33:59.699Z,8200
2017-05-14T10:35:12.369Z,8948
2017-05-14T10:36:26.648Z,9556
2017-05-14T10:37:40.707Z,9856
2017-05-14T10:38:55.011Z,9864
2017-05-14T10:40:10.380Z,9460
2017-05-14T10:41:26.091Z,9108
2017-05-14T10:42:41.496Z,8792
2017-05-14T10:43:56.828Z,8380
2017-05-14T10:45:10.897Z,8072
2017-05-14T10:46:26.461Z,7984
2017-05-14T10:47:40.619Z,8052
2017-05-14T10:48:54.594Z,8148
2017-05-14T10:50:09.956Z,8160
2017-05-14T10:51:24.222Z,8012
2017-05-14T10:52:39.621Z,8276
2017-05-14T10:53:53.775Z,8440
2017-05-14T10:55:06.723Z,8272
2017-05-14T10:56:22.313Z,8028
2017-05-14T10:57:37.712Z,7788
2017-05-14T10:58:53.073Z,7548
2017-05-14T11:00:07.178Z,7336
2017-05-14T11:01:22.874Z,7112
2017-05-14T11:02:36.951Z,6836
2017-05-14T11:03:52.311Z,6532
2017-05-14T11:05:05.342Z,6404
2017-05-14T11:06:20.729Z,6252
2017-05-14T11:07:35.012Z,6116
2017-05-14T11:08:50.369Z,6060
2017-05-14T11:10:06.007Z,6124
2017-05-14T11:11:20.148Z,6276
2017-05-14T11:12:35.699Z,6528
2017-05-14T11:13:49.774Z,6832
2017-05-14T11:15:05.440Z,7172
2017-05-14T11:16:19.564Z,7492
2017-05-14T11:17:35.212Z,7776
2017-05-14T11:18:50.593Z,7928
2017-05-14T11:20:05.997Z,7932
2017-05-14T11:21:21.357Z,7784
2017-05-14T11:22:34.241Z,7592
2017-05-14T11:23:49.628Z,7392
2017-05-14T11:25:05.216Z,7192
2017-05-14T11:26:19.410Z,7024
2017-05-14T11:27:35.114Z,6948
2017-05-14T11:28:50.733Z,7024
2017-05-14T11:30:06.085Z,7320
2017-05-14T11:31:20.226Z,7652
2017-05-14T11:32:35.836Z,7976
2017-05-14T11:33:51.193Z,8708
2017-05-14T11:35:06.554Z,9364
2017-05-14T11:36:21.923Z,9736
2017-05-14T11:37:37.570Z,10116
2017-05-14T11:38:52.949Z,11076
2017-05-14T11:40:08.308Z,12456
2017-05-14T11:41:23.663Z,13824
2017-05-14T11:42:38.095Z,15208
2017-05-14T11:43:53.477Z,16576
2017-05-14T11:45:08.898Z,17568
2017-05-14T11:46:24.297Z,18464
2017-05-14T11:47:38.599Z,20000
2017-05-14T11:48:52.693Z,22752
2017-05-14T11:50:06.758Z,25408
2017-05-14T11:51:20.853Z,25824
2017-05-14T11:52:36.805Z,28384
2017-05-14T11:53:52.196Z,27488
2017-05-14T11:55:07.613Z,27040
2017-05-14T11:56:23.238Z,27424
2017-05-14T11:57:37.582Z,26688
2017-05-14T11:58:52.935Z,26688
2017-05-14T12:00:07.063Z,27808
2017-05-14T12:01:22.468Z,29376
2017-05-14T12:02:38.115Z,33344
2017-05-14T12:03:53.480Z,38880
2017-05-14T12:05:08.859Z,33760
2017-05-14T12:06:24.251Z,37984
2017-05-14T12:07:39.913Z,38144
2017-05-14T12:08:55.646Z,39616
2017-05-14T12:10:09.800Z,42784
2017-05-14T12:11:25.310Z,31168
2017-05-14T12:12:40.905Z,32096
2017-05-14T12:13:56.244Z,26048
2017-05-14T12:15:12.106Z,22528
2017-05-14T12:16:24.758Z,20928
2017-05-14T12:17:40.107Z,21856
2017-05-14T12:18:55.654Z,25888
2017-05-14T12:20:11.027Z,47520
2017-05-14T12:21:26.396Z,42912
2017-05-14T12:22:41.754Z,63552
2017-05-14T12:23:55.736Z,63968
2017-05-14T12:25:11.093Z,71680
2017-05-14T12:26:26.567Z,86432
2017-05-14T12:28:33.796Z,83904
2017-05-14T12:30:22.704Z,70560
2017-05-14T12:32:22.794Z,51520
2017-05-14T12:33:45.938Z,36128
2017-05-14T12:35:08.633Z,49504
2017-05-14T12:44:01.693Z,113760
2017-05-14T12:45:17.077Z,86048
2017-05-14T12:46:32.466Z,106496
2017-05-14T12:47:47.834Z,104320
2017-05-14T12:49:02.139Z,103136
2017-05-14T12:50:16.258Z,78688
2017-05-14T12:51:31.689Z,97536
2017-05-14T12:52:47.089Z,101152
2017-05-14T12:54:02.618Z,110464
2017-05-14T12:55:17.973Z,142400
2017-05-14T12:56:32.058Z,121664
2017-05-14T12:57:47.131Z,78784
2017-05-14T12:59:02.782Z,80064
2017-05-14T13:00:18.174Z,104352
2017-05-14T13:01:33.669Z,99264
2017-05-14T13:02:49.055Z,75136
2017-05-14T13:04:04.746Z,66176
2017-05-14T13:05:20.149Z,114144
2017-05-14T13:06:35.533Z,45664
2017-05-14T13:07:48.214Z,34016
2017-05-14T13:09:03.892Z,71104
2017-05-14T13:10:19.289Z,22496
2017-05-14T13:11:33.382Z,39872
2017-05-14T13:12:48.782Z,98208
2017-05-14T13:14:04.410Z,112352
2017-05-14T13:15:18.494Z,123872
2017-05-14T13:16:32.437Z,103936
2017-05-14T13:17:46.485Z,61632
2017-05-14T13:19:01.936Z,95072
2017-05-14T13:20:17.561Z,108832
2017-05-14T13:21:32.931Z,140480
2017-05-14T13:22:48.288Z,137088
2017-05-14T13:24:03.341Z,105312
2017-05-14T13:25:19.181Z,23328
2017-05-14T13:26:34.560Z,59008
2017-05-14T13:27:48.532Z,96096
2017-05-14T13:29:03.918Z,117408
2017-05-14T13:30:19.509Z,123648
2017-05-14T13:31:34.899Z,96608
2017-05-14T13:32:49.969Z,63680
2017-05-14T13:34:04.114Z,97984
2017-05-14T13:35:19.800Z,124736
2017-05-14T13:36:35.181Z,93600
2017-05-14T13:37:50.666Z,18464
2017-05-14T13:39:04.787Z,52288
2017-05-14T13:40:20.414Z,38912
2017-05-14T13:41:36.067Z,25760
2017-05-14T13:42:51.067Z,107744
2017-05-14T13:44:05.441Z,70592
2017-05-14T13:45:21.054Z,72128
2017-05-14T13:46:36.121Z,113760
2017-05-14T13:47:51.501Z,110304
2017-05-14T13:49:36.325Z,73760
2017-05-14T13:50:51.903Z,82112
2017-05-14T13:52:07.312Z,93376
2017-05-14T13:53:22.723Z,87488
2017-05-14T13:54:37.121Z,80544
2017-05-14T13:55:52.745Z,77600
2017-05-14T13:57:08.173Z,83200
2017-05-14T13:58:22.263Z,98784
2017-05-14T13:59:37.675Z,103584
2017-05-14T14:00:52.060Z,84864
2017-05-14T14:02:07.771Z,73408
2017-05-14T14:03:21.906Z,75232
2017-05-14T14:04:37.401Z,81312
2017-05-14T14:05:53.133Z,60960
2017-05-14T14:07:08.547Z,60256
2017-05-14T14:08:23.917Z,57568
2017-05-14T14:09:39.299Z,74944
2017-05-14T14:10:54.890Z,86752
2017-05-14T14:12:10.267Z,82496
2017-05-14T14:13:25.661Z,81088
2017-05-14T14:14:41.125Z,82272
2017-05-14T14:15:54.199Z,62464
2017-05-14T14:17:11.279Z,31904
2017-05-14T14:18:27.350Z,63680
2017-05-14T14:19:45.379Z,70528
2017-05-14T14:21:00.184Z,14400
2017-05-14T14:22:16.637Z,27520
2017-05-14T14:23:34.140Z,79616
2017-05-14T14:24:49.983Z,12368
2017-05-14T14:26:07.479Z,11188
2017-05-14T14:27:24.423Z,10788
2017-05-14T14:28:41.397Z,12252
2017-05-14T14:29:56.717Z,26496
2017-05-14T14:31:14.053Z,82464
2017-05-14T14:32:30.761Z,87744
2017-05-14T14:33:46.456Z,83296
2017-05-14T14:35:02.596Z,74400
2017-05-14T14:36:19.413Z,67936
2017-05-14T14:37:36.636Z,68416
2017-05-14T14:39:24.418Z,43712
2017-05-14T14:40:41.970Z,51136
2017-05-14T14:41:56.892Z,65472
2017-05-14T14:43:13.677Z,67584
2017-05-14T14:44:29.642Z,86592
2017-05-14T14:45:45.021Z,83616
2017-05-14T14:47:00.671Z,63328
2017-05-14T14:48:16.065Z,77376
2017-05-14T14:49:30.149Z,92320
2017-05-14T14:50:45.787Z,78752
2017-05-14T14:52:01.580Z,61216
2017-05-14T14:53:17.255Z,51808
2017-05-14T14:54:31.357Z,51968
2017-05-14T14:55:46.764Z,15072
2017-05-14T14:57:01.169Z,24160
2017-05-14T14:58:15.326Z,35936
2017-05-14T14:59:28.008Z,14220
2017-05-14T15:00:43.695Z,48192
2017-05-14T15:01:59.676Z,51232
2017-05-14T15:03:15.124Z,50144
2017-05-14T15:04:30.514Z,63520
2017-05-14T15:05:45.938Z,65152
2017-05-14T15:07:01.808Z,57472
2017-05-14T15:08:15.553Z,54368
2017-05-14T15:09:30.996Z,53408
2017-05-14T15:10:46.617Z,55104
2017-05-14T15:12:02.284Z,51968
2017-05-14T15:13:17.944Z,23744
2017-05-14T15:14:32.113Z,12904
2017-05-14T15:15:47.751Z,12040
2017-05-14T15:17:03.346Z,11368
2017-05-14T15:18:18.777Z,10884
2017-05-14T15:19:32.894Z,10624
2017-05-14T15:20:48.750Z,10496
2017-05-14T15:22:04.322Z,10224
2017-05-14T15:23:19.684Z,9676
2017-05-14T15:24:35.079Z,9232
2017-05-14T15:25:50.482Z,9056
2017-05-14T15:27:05.738Z,8920
2017-05-14T15:28:19.743Z,8800
2017-05-14T15:29:35.152Z,8640
2017-05-14T15:30:50.532Z,8524
2017-05-14T15:32:04.767Z,8432
2017-05-14T15:33:51.011Z,8364
2017-05-14T15:35:06.469Z,8264
2017-05-14T15:36:21.940Z,8092
2017-05-14T15:37:36.300Z,8020
2017-05-14T15:38:51.720Z,7952
2017-05-14T15:40:07.110Z,7960
2017-05-14T15:41:22.484Z,8160
2017-05-14T15:42:38.045Z,7964
2017-05-14T15:43:52.315Z,8244
2017-05-14T15:45:06.424Z,8300
2017-05-14T15:46:21.805Z,8088
2017-05-14T15:47:37.473Z,7632
2017-05-14T15:48:52.867Z,7392
2017-05-14T15:50:06.966Z,7372
2017-05-14T15:51:22.352Z,7236
2017-05-14T15:52:37.955Z,7152
2017-05-14T15:53:53.383Z,7092
2017-05-14T15:55:08.792Z,7076
2017-05-14T15:56:24.293Z,7044
2017-05-14T15:57:38.441Z,7060
2017-05-14T15:58:52.784Z,7056
2017-05-14T16:00:08.157Z,7116
2017-05-14T16:01:20.819Z,7152
2017-05-14T16:02:36.444Z,7172
2017-05-14T16:03:52.547Z,6820
2017-05-14T16:05:06.525Z,6956
2017-05-14T16:06:22.131Z,6984
2017-05-14T16:07:37.875Z,6956
2017-05-14T16:08:53.275Z,6964
2017-05-14T16:10:08.727Z,7000
2017-05-14T16:11:24.131Z,7112
2017-05-14T16:12:39.700Z,7156
2017-05-14T16:13:55.102Z,7124
2017-05-14T16:15:10.473Z,7232
2017-05-14T16:16:25.876Z,7188
2017-05-14T16:17:40.441Z,7176
2017-05-14T16:18:56.355Z,7392
2017-05-14T16:20:11.762Z,7536
2017-05-14T16:21:27.209Z,7472
2017-05-14T16:22:42.784Z,7468
2017-05-14T16:23:58.198Z,7388
2017-05-14T16:25:12.276Z,7328
2017-05-14T16:26:27.655Z,7336
2017-05-14T16:27:40.686Z,7596
2017-05-14T16:28:56.147Z,7632
2017-05-14T16:30:09.910Z,7692
2017-05-14T16:31:25.272Z,7520
2017-05-14T16:32:40.930Z,7076
2017-05-14T16:33:56.293Z,6656
2017-05-14T16:35:12.035Z,6288
2017-05-14T16:36:26.098Z,6048
2017-05-14T16:37:41.664Z,5896
2017-05-14T16:38:57.039Z,5600
2017-05-14T16:40:09.839Z,5368
2017-05-14T16:41:23.941Z,5192
2017-05-14T16:42:39.310Z,5176
2017-05-14T16:43:55.061Z,5200
2017-05-14T16:45:10.482Z,5180
2017-05-14T16:46:26.122Z,5120
2017-05-14T16:47:40.284Z,4996
2017-05-14T16:48:54.768Z,4876
2017-05-14T16:50:10.441Z,4708
2017-05-14T16:51:25.931Z,4552
2017-05-14T16:52:41.403Z,4428
2017-05-14T16:53:55.638Z,4340
2017-05-14T16:55:10.993Z,4280
2017-05-14T16:56:26.386Z,4232